Latest Weather Observations for Leonora Airport

IDW60801

Issued at 7:33 am WST Friday 19 August 2022 (issued every 10 minutes, with the page automatically refreshed every 10 minutes)

About weather observations | Map of weather stations | Latest weather observations for WA | Other Formats
Station Details ID: 012241 Name: LEONORA AERO Lat: -28.88 Lon: 121.32 Height: 370.0 m
Data from the previous 72 hours. | See also: Recent months at Leonora Airport
Date/Time
WST
Temp
°C
App
Temp
°C
Dew
Point
°C
Rel
Hum
%
Delta-T
°C
Wind Press
QNH
hPa
Press
MSL
hPa
Rain since
9am
mm
Dir  Spd
km/h
Gust
km/h
Spd
kts
Gust
kts
19/07:30am 7.2 6.0 4.7 84 1.1 CALM 0 0 0 0 1029.7 1029.3 0.0
19/07:00am 4.7 3.4 4.0 95 0.3 CALM 0 0 0 0 1029.2 1028.9 0.0
19/06:30am 3.8 2.3 2.9 94 0.4 CALM 0 4 0 2 1029.0 1028.7 0.0
19/06:00am 3.7 2.1 2.7 93 0.4 CALM 0 0 0 0 1028.8 1028.5 0.0
19/05:30am 4.0 2.5 3.0 93 0.4 CALM 0 0 0 0 1028.4 1028.1 0.0
19/05:00am 4.1 2.6 2.9 92 0.5 CALM 0 0 0 0 1028.3 1028.0 0.0
19/04:30am 4.3 2.8 3.0 91 0.5 CALM 0 0 0 0 1028.0 1027.6 0.0
19/04:00am 4.6 3.1 2.9 89 0.7 CALM 0 0 0 0 1027.8 1027.4 0.0
19/03:30am 5.0 3.5 3.2 88 0.8 CALM 0 0 0 0 1027.8 1027.4 0.0
19/03:00am 5.2 3.8 3.7 90 0.6 CALM 0 0 0 0 1027.8 1027.4 0.0
19/02:30am 5.4 4.1 3.9 90 0.6 CALM 0 0 0 0 1027.6 1027.2 0.0
19/02:00am 5.7 4.4 4.0 89 0.7 CALM 0 0 0 0 1027.6 1027.2 0.0
19/01:30am 6.0 4.3 4.2 88 0.8 NE 2 6 1 3 1027.8 1027.4 0.0
19/01:00am 6.9 5.8 5.2 89 0.8 CALM 0 6 0 3 1027.9 1027.5 0.0
19/12:30am 7.8 6.0 5.4 85 1.1 NE 4 7 2 4 1028.2 1027.9 0.0
19/12:00am 8.2 6.0 5.5 83 1.2 NE 6 7 3 4 1028.3 1028.0 0.0
 
Date/Time
WST
Temp
°C
App
Temp
°C
Dew
Point
°C
Rel
Hum
%
Delta-T
°C
Wind Press
QNH
hPa
Press
MSL
hPa
Rain since
9am
mm
Dir  Spd
km/h
Gust
km/h
Spd
kts
Gust
kts
18/11:30pm 8.4 6.3 5.9 84 1.2 ENE 6 7 3 4 1028.4 1028.1 0.0
18/11:00pm 8.5 7.5 5.8 83 1.2 CALM 0 0 0 0 1028.5 1028.2 0.0
18/10:30pm 9.0 7.6 5.4 78 1.7 ENE 2 7 1 4 1028.5 1028.2 0.0
18/10:00pm 8.8 7.9 6.1 83 1.3 CALM 0 0 0 0 1028.5 1028.2 0.0
18/09:30pm 9.2 8.4 6.3 82 1.4 CALM 0 0 0 0 1028.3 1028.0 0.0
18/09:00pm 10.0 8.8 4.8 70 2.4 CALM 0 0 0 0 1028.0 1027.6 0.0
18/08:30pm 10.5 9.4 5.3 70 2.4 CALM 0 2 0 1 1027.9 1027.5 0.0
18/08:00pm 11.1 8.7 4.1 62 3.2 S 6 7 3 4 1027.9 1027.5 0.0
18/07:30pm 11.5 8.8 3.5 58 3.6 SSE 7 7 4 4 1027.5 1027.1 0.0
18/07:00pm 12.2 11.1 4.9 61 3.4 CALM 0 0 0 0 1027.1 1026.7 0.0
18/06:30pm 13.0 11.4 2.6 49 4.7 CALM 0 0 0 0 1026.7 1026.4 0.0
18/06:00pm 13.7 11.1 0.7 41 5.6 ESE 4 7 2 4 1026.5 1026.2 0.0
18/05:30pm 14.7 10.8 -1.4 33 6.7 SE 9 11 5 6 1026.2 1025.9 0.0
18/05:00pm 15.3 10.9 -2.6 29 7.3 SE 11 19 6 10 1025.9 1025.6 0.0
18/04:30pm 15.5 10.4 -2.0 30 7.3 SSE 15 19 8 10 1025.7 1025.3 0.0
18/04:00pm 15.8 11.1 -1.7 30 7.3 SE 13 20 7 11 1025.3 1024.9 0.0
18/03:30pm 15.8 11.2 -1.3 31 7.2 ESE 13 22 7 12 1025.3 1024.9 0.0
18/03:00pm 15.9 10.6 -0.8 32 7.1 SE 17 20 9 11 1025.5 1025.1 0.0
18/02:30pm 15.8 11.3 -0.4 33 7.0 SE 13 19 7 10 1025.6 1025.2 0.0
18/02:00pm 15.6 11.9 0.2 35 6.7 SSE 9 15 5 8 1025.9 1025.6 0.0
18/01:30pm 15.3 11.8 1.1 38 6.3 SE 9 15 5 8 1025.9 1025.6 0.0
18/01:00pm 15.2 11.9 2.7 43 5.7 SE 9 20 5 11 1025.9 1025.6 0.0
18/12:30pm 14.4 11.4 2.3 44 5.5 SE 7 15 4 8 1026.2 1025.9 0.0
18/12:00pm 13.9 10.3 3.1 48 4.9 SE 11 17 6 9 1026.5 1026.2 0.0
18/11:30am 13.5 10.1 3.8 52 4.5 SSE 11 20 6 11 1026.9 1026.5 0.0
18/11:00am 13.0 9.2 3.7 53 4.2 SE 13 22 7 12 1027.1 1026.7 0.0
18/10:30am 12.2 8.8 3.9 57 3.8 SE 11 19 6 10 1026.9 1026.5 0.0
18/10:00am 11.7 8.8 4.7 62 3.2 SSE 9 15 5 8 1026.9 1026.5 0.0
18/09:30am 11.0 7.4 5.1 67 2.7 SSE 13 20 7 11 1026.9 1026.5 0.0
18/09:00am 10.9 7.2 6.1 72 2.3 SSE 15 22 8 12 1026.3 1026.0 2.6
18/08:30am 9.8 6.8 6.0 77 1.8 SSE 11 17 6 9 1026.0 1025.7 2.6
18/08:00am 9.0 6.1 6.3 83 1.3 SSW 11 17 6 9 1025.6 1025.2 2.6
18/07:30am 8.2 6.0 6.2 87 0.9 SW 7 9 4 5 1025.1 1024.7 2.6
18/07:00am 7.2 4.9 5.8 91 0.6 SSW 7 9 4 5 1024.7 1024.3 2.6
18/06:30am 6.7 4.4 5.7 93 0.5 SSW 7 11 4 6 1024.4 1024.0 2.6
18/06:00am 7.0 4.7 5.6 91 0.6 SSW 7 9 4 5 1024.0 1023.6 2.6
18/05:30am 7.5 4.4 5.6 88 0.9 SSW 11 15 6 8 1023.5 1023.2 2.6
18/05:00am 7.9 4.5 5.7 86 1.0 SSW 13 19 7 10 1023.0 1022.6 2.6
18/04:30am 8.3 4.5 5.9 85 1.1 SW 15 22 8 12 1022.4 1022.0 2.6
18/04:10am 8.6 4.1 5.9 83 1.3 SSW 19 26 10 14 1021.9 1021.5 2.6
18/04:00am 8.7 4.2 6.0 83 1.3 SSW 19 28 10 15 1021.8 1021.4 2.6
18/03:34am 9.1 5.1 6.7 85 1.1 SW 17 24 9 13 1021.4 1021.0 2.6
18/03:30am 9.1 5.1 6.5 84 1.2 SW 17 24 9 13 1021.3 1020.9 2.6
18/03:00am 9.6 5.0 6.7 82 1.4 SW 20 32 11 17 1020.9 1020.5 2.6
18/02:30am 9.8 5.9 6.9 82 1.4 SW 17 26 9 14 1020.4 1020.0 2.6
18/02:00am 10.3 4.2 6.8 79 1.7 WSW 28 48 15 26 1020.2 1019.8 2.6
18/01:56am 10.4 4.3 6.5 77 1.9 WSW 28 48 15 26 1020.2 1019.8 2.6
18/01:30am 10.6 6.2 7.3 80 1.6 WSW 20 33 11 18 1019.9 1019.5 2.6
18/01:00am 10.2 8.2 8.8 91 0.7 SW 9 11 5 6 1019.7 1019.3 2.6
18/12:30am 10.2 7.8 8.5 89 0.8 WSW 11 15 6 8 1019.0 1018.6 2.6
18/12:03am 10.4 6.9 8.8 90 0.8 SW 17 24 9 13 1019.0 1018.6 2.6
18/12:00am 10.4 6.3 8.8 90 0.8 SW 20 32 11 17 1019.1 1018.7 2.6
 
Date/Time
WST
Temp
°C
App
Temp
°C
Dew
Point
°C
Rel
Hum
%
Delta-T
°C
Wind Press
QNH
hPa
Press
MSL
hPa
Rain since
9am
mm
Dir  Spd
km/h
Gust
km/h
Spd
kts
Gust
kts
17/11:49pm 10.5 5.6 8.6 88 1.0 SW 24 39 13 21 1019.3 1018.9 2.6
17/11:30pm 11.1 6.0 9.2 88 1.0 SW 26 41 14 22 1018.8 1018.3 2.6
17/11:24pm 11.5 6.6 9.9 90 0.8 WSW 26 41 14 22 1018.7 1018.2 2.2
17/11:21pm 11.6 7.0 9.7 88 1.0 WSW 24 41 13 22 1018.6 1018.1 2.2
17/11:00pm 11.8 6.9 9.9 88 1.0 WSW 26 41 14 22 1018.1 1017.7 2.2
17/10:44pm 12.0 7.4 9.7 86 1.2 WSW 24 37 13 20 1017.8 1017.4 2.2
17/10:30pm 12.1 8.5 10.5 90 0.8 SW 20 33 11 18 1017.7 1017.3 2.2
17/10:29pm 12.1 8.7 10.5 90 0.8 SW 19 28 10 15 1017.6 1017.2 2.2
17/10:25pm 12.2 9.3 10.9 92 0.7 SW 17 26 9 14 1017.6 1017.2 2.0
17/10:21pm 12.2 9.0 11.1 93 0.6 SW 19 30 10 16 1017.6 1017.2 2.0
17/10:00pm 12.7 9.9 11.3 91 0.8 SW 17 24 9 13 1017.1 1016.7 0.8
17/09:58pm 12.8 10.3 11.2 90 0.9 SW 15 24 8 13 1017.1 1016.7 0.4
17/09:30pm 14.0 10.2 9.2 73 2.5 SSW 19 30 10 16 1016.2 1015.7 0.0
17/09:00pm 14.8 12.0 8.7 67 3.2 S 13 17 7 9 1015.2 1014.8 0.0
17/08:30pm 15.5 13.4 8.3 62 3.7 S 9 15 5 8 1014.8 1014.4 0.0
17/08:00pm 18.2 13.5 5.1 42 6.4 NW 19 26 10 14 1014.7 1014.3 0.0
17/07:30pm 18.2 13.4 4.7 41 6.6 NW 19 28 10 15 1014.6 1014.2 0.0
17/07:00pm 18.2 13.4 4.7 41 6.6 NW 19 26 10 14 1014.6 1014.2 0.0
17/06:30pm 18.3 13.1 3.8 38 7.0 NW 20 28 11 15 1014.3 1013.9 0.0
17/06:00pm 18.5 13.3 3.6 37 7.1 NW 20 28 11 15 1014.1 1013.6 0.0
17/05:30pm 18.8 12.7 3.0 35 7.5 WNW 24 37 13 20 1014.0 1013.5 0.0
17/05:00pm 19.4 13.0 3.2 34 7.7 WNW 26 35 14 19 1013.8 1013.3 0.0
17/04:32pm 19.8 12.0 2.6 32 8.1 WNW 33 52 18 28 1013.8 1013.3 0.0
17/04:30pm 19.8 12.2 2.6 32 8.1 WNW 32 48 17 26 1013.8 1013.3 0.0
17/04:00pm 19.8 11.6 2.6 32 8.1 WNW 35 46 19 25 1013.6 1013.1 0.0
17/03:30pm 20.3 12.5 2.6 31 8.4 W 33 46 18 25 1013.6 1013.1 0.0
17/03:00pm 21.0 12.8 2.8 30 8.7 WNW 35 56 19 30 1013.8 1013.3 0.0
17/02:44pm 20.5 12.8 2.3 30 8.6 WNW 32 52 17 28 1013.9 1013.4 0.0
17/02:30pm 20.0 11.8 2.8 32 8.2 WNW 35 46 19 25 1013.8 1013.3 0.0
17/02:00pm 20.2 12.5 3.4 33 8.1 WNW 33 46 18 25 1013.8 1013.3 0.0
17/01:30pm 19.8 10.8 2.6 32 8.1 W 39 65 21 35 1014.0 1013.5 0.0
17/01:05pm 19.6 11.1 3.3 34 7.8 WNW 37 56 20 30 1014.2 1013.8 0.0
17/01:00pm 19.4 10.2 3.6 35 7.6 WNW 41 56 22 30 1014.2 1013.8 0.0
17/12:38pm 19.4 11.5 4.4 37 7.3 WNW 35 56 19 30 1014.5 1014.1 0.0
17/12:30pm 19.1 10.9 4.5 38 7.1 W 37 50 20 27 1014.7 1014.3 0.0
17/12:06pm 19.1 11.3 4.8 39 7.0 WNW 35 54 19 29 1015.0 1014.6 0.0
17/12:00pm 19.2 11.9 5.6 41 6.8 W 33 46 18 25 1015.0 1014.6 0.0
17/11:50am 18.5 10.4 5.4 42 6.5 WNW 37 52 20 28 1015.2 1014.8 0.0
17/11:30am 18.3 9.0 5.2 42 6.5 WNW 43 57 23 31 1015.6 1015.1 0.0
17/11:00am 17.9 9.2 5.8 45 6.0 WNW 41 56 22 30 1015.9 1015.4 0.0
17/10:35am 17.8 10.8 7.0 49 5.5 W 33 52 18 28 1016.1 1015.6 0.0
17/10:30am 17.5 10.1 6.7 49 5.5 W 35 52 19 28 1016.2 1015.7 0.0
17/10:00am 16.5 9.5 8.5 59 4.2 WNW 35 48 19 26 1016.3 1015.8 0.0
17/09:50am 15.9 8.9 8.6 62 3.8 WNW 35 54 19 29 1016.3 1015.8 0.0
17/09:30am 15.7 8.8 8.7 63 3.6 WNW 35 48 19 26 1016.4 1015.9 0.0
17/09:16am 15.7 9.1 8.7 63 3.6 WNW 33 54 18 29 1016.3 1015.8 0.0
17/09:00am 15.5 9.1 9.4 67 3.2 WNW 33 48 18 26 1016.2 1015.7 1.4
17/08:30am 15.0 8.9 9.8 71 2.8 WNW 32 41 17 22 1016.0 1015.5 1.4
17/08:00am 14.5 9.6 9.9 74 2.4 WNW 26 35 14 19 1015.9 1015.4 1.4
17/07:30am 13.8 10.1 10.2 79 1.9 WNW 20 30 11 16 1015.5 1015.0 1.4
17/07:00am 13.3 9.6 10.3 82 1.6 WNW 20 26 11 14 1015.1 1014.7 1.4
17/06:30am 13.3 10.8 11.2 87 1.1 WNW 15 20 8 11 1014.7 1014.3 1.4
17/06:00am 13.4 11.1 11.6 89 1.0 WNW 15 20 8 11 1014.3 1013.9 1.4
17/05:30am 13.4 11.6 12.1 92 0.7 WNW 13 19 7 10 1013.9 1013.4 1.4
17/05:00am 13.1 10.4 11.7 91 0.8 WNW 17 22 9 12 1013.7 1013.2 1.4
17/04:55am 13.2 10.1 11.6 90 0.9 WNW 19 26 10 14 1013.7 1013.2 1.4
17/04:48am 13.2 9.8 11.4 89 1.0 WNW 20 30 11 16 1013.6 1013.1 1.4
17/04:30am 13.2 10.8 12.6 96 0.3 WSW 17 24 9 13 1013.5 1013.0 1.2
17/04:24am 13.3 10.9 12.7 96 0.3 W 17 24 9 13 1013.4 1012.9 1.2
17/04:11am 13.4 11.4 12.8 96 0.3 W 15 22 8 12 1013.2 1012.7 1.0
17/04:00am 13.4 11.4 12.8 96 0.3 W 15 20 8 11 1013.1 1012.6 1.0
17/03:40am 13.4 11.0 12.6 95 0.4 W 17 20 9 11 1013.1 1012.6 0.8
17/03:39am 13.5 11.1 12.7 95 0.4 W 17 20 9 11 1013.1 1012.6 0.8
17/03:30am 13.5 11.9 12.7 95 0.4 W 13 17 7 9 1012.7 1012.2 0.8
17/03:03am 13.7 11.4 11.9 89 1.0 W 15 20 8 11 1012.7 1012.2 0.0
17/03:00am 13.9 11.6 11.9 88 1.1 W 15 20 8 11 1012.8 1012.3 0.0
17/02:53am 14.1 12.1 11.6 85 1.4 WSW 13 19 7 10 1012.7 1012.2 0.0
17/02:30am 14.2 11.8 11.4 83 1.5 WSW 15 22 8 12 1012.7 1012.2 0.0
17/02:25am 14.2 11.4 11.4 83 1.5 WSW 17 24 9 13 1012.6 1012.1 0.0
17/02:00am 14.6 10.0 11.2 80 1.8 WSW 26 37 14 20 1012.8 1012.3 0.0
17/01:36am 15.0 11.4 11.8 81 1.8 W 22 30 12 16 1013.0 1012.5 0.0
17/01:30am 15.1 12.0 12.1 82 1.7 WSW 20 30 11 16 1013.0 1012.5 0.0
17/01:15am 15.1 11.6 12.2 83 1.6 W 22 28 12 15 1012.7 1012.2 0.0
17/01:00am 15.5 12.6 12.8 84 1.5 WSW 20 30 11 16 1012.7 1012.2 0.0
17/12:30am 15.6 13.1 14.0 90 0.9 WSW 20 30 11 16 1012.2 1011.8 0.0
17/12:06am 15.6 13.3 14.0 90 0.9 WSW 19 28 10 15 1012.0 1011.6 0.0
17/12:00am 15.5 12.9 13.9 90 0.9 WSW 20 28 11 15 1012.1 1011.7 0.0
 
Date/Time
WST
Temp
°C
App
Temp
°C
Dew
Point
°C
Rel
Hum
%
Delta-T
°C
Wind Press
QNH
hPa
Press
MSL
hPa
Rain since
9am
mm
Dir  Spd
km/h
Gust
km/h
Spd
kts
Gust
kts
16/11:53pm 15.5 12.2 13.9 90 0.9 WSW 24 35 13 19 1012.1 1011.7 0.0
16/11:50pm 15.4 11.2 13.4 88 1.1 WSW 28 44 15 24 1012.0 1011.6 0.0
16/11:30pm 18.2 15.0 14.3 78 2.3 W 24 33 13 18 1011.8 1011.3 0.0
16/11:00pm 18.8 15.5 13.9 73 2.9 W 24 39 13 21 1011.8 1011.3 0.0
16/10:30pm 19.0 16.4 13.8 72 3.0 WNW 20 28 11 15 1011.8 1011.3 0.0
16/10:00pm 19.0 16.6 13.8 72 3.0 WNW 19 28 10 15 1012.1 1011.7 0.0
16/09:30pm 19.0 15.6 13.8 72 3.0 WNW 24 35 13 19 1012.2 1011.8 0.0
16/09:00pm 19.1 15.4 13.9 72 3.0 W 26 41 14 22 1012.2 1011.8 0.0
16/08:30pm 19.2 16.7 14.2 73 2.9 W 20 28 11 15 1012.2 1011.8 0.0
16/08:00pm 19.4 17.5 14.2 72 3.1 W 17 22 9 12 1011.8 1011.3 0.0
16/07:30pm 19.6 17.6 14.0 70 3.3 W 17 20 9 11 1011.6 1011.1 0.0
16/07:00pm 20.1 17.8 14.0 68 3.6 W 19 28 10 15 1011.4 1010.9 0.0
16/06:30pm 20.4 17.6 14.3 68 3.6 W 22 33 12 18 1011.0 1010.5 0.0
16/06:00pm 21.2 17.7 14.6 66 3.9 W 26 35 14 19 1010.8 1010.3 0.0
16/05:30pm 22.3 19.5 14.4 61 4.7 W 22 35 12 19 1010.3 1009.8 0.0
16/05:00pm 22.8 20.0 14.4 59 5.0 W 22 35 12 19 1009.9 1009.4 0.0
16/04:30pm 23.0 19.3 14.0 57 5.4 WSW 26 35 14 19 1009.8 1009.3 0.0
16/04:00pm 24.0 20.1 13.2 50 6.4 W 26 39 14 21 1009.4 1008.9 0.0
16/03:30pm 25.0 20.4 12.2 44 7.5 W 28 43 15 23 1009.2 1008.7 0.0
16/03:00pm 25.6 20.0 12.1 43 7.9 WSW 33 46 18 25 1008.8 1008.3 0.0
16/02:48pm 27.0 20.6 10.7 36 9.3 W 35 54 19 29 1008.8 1008.3 0.0
16/02:42pm 27.4 19.9 9.3 32 10.2 W 39 54 21 29 1008.6 1008.1 0.0
16/02:30pm 29.0 20.4 6.4 24 12.2 WNW 41 56 22 30 1008.3 1007.8 0.0
16/02:13pm 29.5 20.3 6.2 23 12.5 WNW 44 65 24 35 1008.3 1007.8 0.0
16/02:00pm 29.6 20.4 6.3 23 12.6 WNW 44 59 24 32 1008.2 1007.7 0.0
16/01:30pm 29.8 21.2 6.5 23 12.6 WNW 41 59 22 32 1008.4 1007.9 0.0
16/01:06pm 29.3 20.4 6.7 24 12.3 NW 43 65 23 35 1008.5 1008.0 0.0
16/01:00pm 29.2 20.2 7.2 25 12.0 NW 44 57 24 31 1008.7 1008.2 0.0
16/12:30pm 29.6 19.4 6.9 24 12.4 NW 50 72 27 39 1009.1 1008.6 0.0
16/12:07pm 29.8 21.2 6.5 23 12.6 NW 41 59 22 32 1009.4 1008.9 0.0
16/12:00pm 29.1 20.5 6.5 24 12.2 NW 41 56 22 30 1009.4 1008.9 0.0
16/11:32am 28.3 19.8 7.0 26 11.5 NW 41 59 22 32 1010.1 1009.6 0.0
16/11:30am 28.2 19.3 6.9 26 11.5 NNW 43 59 23 32 1010.2 1009.7 0.0
16/11:05am 27.4 19.6 6.8 27 11.1 NW 37 57 20 31 1010.7 1010.2 0.0
16/11:00am 27.4 19.4 7.3 28 10.9 NW 39 54 21 29 1010.8 1010.3 0.0
16/10:35am 27.3 20.0 7.2 28 10.9 NW 35 54 19 29 1011.1 1010.6 0.0
16/10:30am 27.2 20.3 7.1 28 10.8 NW 33 46 18 25 1011.1 1010.6 0.0
16/10:00am 26.6 19.3 7.1 29 10.5 NW 35 48 19 26 1011.5 1011.0 0.0
16/09:30am 25.9 19.2 7.5 31 9.9 NW 32 43 17 23 1011.7 1011.2 0.0
16/09:00am 25.1 19.6 7.7 33 9.4 NNW 26 35 14 19 1011.9 1011.5 0.0
16/08:30am 24.5 19.4 7.6 34 9.1 NNW 24 28 13 15 1012.0 1011.6 0.0
16/08:00am 23.9 19.4 7.1 34 8.9 N 20 30 11 16 1011.8 1011.3 0.0

Other formats

Comma delimited format used in spreadsheet applications
http://www.bom.gov.au/fwo/IDW60801/IDW60801.94450.axf

JavaScript Object Notation format (JSON) in row-major order
http://www.bom.gov.au/fwo/IDW60801/IDW60801.94450.json

Data quality

Most of these data are generated automatically and are frequently updated. Quality checks on data are not normally performed. It is possible for incorrect values to appear. Refer to information at About Latest Weather Observations and please check the disclaimer before using these data.